Time,TemperatureF,DewpointF,PressureIn,WindDirection,WindDirectionDegrees,WindSpeedMPH,WindSpeedGustMPH,Humidity,HourlyPrecipIn,Conditions,Clouds,dailyrainin,SolarRadiationWatts/m^2,SoftwareType,DateUTC
2013-01-28 00:00:00,1.4,-3.3,30.47,West,265,0.0,0.0,80,0.00,,---,0.00,0.00,VWS V14.00,2013-01-28 05:00:00,
2013-01-28 00:02:00,1.4,-3.3,30.46,West,265,0.0,0.0,80,0.00,,---,0.00,0.00,VWS V14.00,2013-01-28 05:02:00,
2013-01-28 00:03:00,1.3,-3.4,30.46,West,265,0.0,0.0,80,0.00,,---,0.00,0.00,VWS V14.00,2013-01-28 05:03:00,
2013-01-28 00:08:00,1.1,-3.9,30.46,West,265,0.0,0.0,79,0.00,,---,0.00,0.00,VWS V14.00,2013-01-28 05:08:00,
2013-01-28 00:13:00,1.0,-4.0,30.46,West,265,0.0,0.0,79,0.00,,---,0.00,0.00,VWS V14.00,2013-01-28 05:13:00,
2013-01-28 00:18:00,1.0,-4.0,30.46,West,265,0.0,0.0,79,0.00,,---,0.00,0.00,VWS V14.00,2013-01-28 05:18:00,
2013-01-28 00:23:00,0.9,-4.1,30.46,West,265,0.0,0.0,79,0.00,,---,0.00,0.00,VWS V14.00,2013-01-28 05:23:00,
2013-01-28 00:28:00,0.9,-4.1,30.46,West,265,0.0,0.0,79,0.00,,---,0.00,0.00,VWS V14.00,2013-01-28 05:28:00,
2013-01-28 00:30:00,8.5,3.6,30.33,NW,306,4.0,15.0,80,0.00,,---,0.00,0.00,VWS V14.00,2013-01-28 05:30:00,
2013-01-28 00:33:00,0.8,-4.2,30.46,West,265,0.0,0.0,79,0.00,,---,0.00,0.00,VWS V14.00,2013-01-28 05:33:00,
2013-01-28 00:38:00,0.6,-4.4,30.46,West,265,0.0,0.0,79,0.00,,---,0.00,0.00,VWS V14.00,2013-01-28 05:38:00,
2013-01-28 00:43:00,0.4,-4.6,30.46,West,265,0.0,0.0,79,0.00,,---,0.00,0.00,VWS V14.00,2013-01-28 05:43:00,
2013-01-28 00:49:00,0.5,-4.2,30.46,West,265,0.0,0.0,80,0.00,,---,0.00,0.00,VWS V14.00,2013-01-28 05:49:00,
2013-01-28 00:54:00,0.4,-4.3,30.46,West,265,0.0,0.0,80,0.00,,---,0.00,0.00,VWS V14.00,2013-01-28 05:54:00,
2013-01-28 00:59:00,0.1,-4.8,30.46,West,265,0.0,0.0,79,0.00,,---,0.00,0.00,VWS V14.00,2013-01-28 05:59:00,
2013-01-28 01:00:00,7.8,2.9,30.34,NNW,338,0.0,10.0,80,0.00,,---,0.00,0.00,VWS V14.00,2013-01-28 06:00:00,
2013-01-28 01:04:00,0.1,-4.6,30.46,West,265,0.0,0.0,80,0.00,,---,0.00,0.00,VWS V14.00,2013-01-28 06:04:00,
2013-01-28 01:09:00,0.2,-4.5,30.47,West,265,0.0,0.0,80,0.00,,---,0.00,0.00,VWS V14.00,2013-01-28 06:09:00,
2013-01-28 01:14:00,0.1,-4.6,30.47,West,265,0.0,0.0,80,0.00,,---,0.00,0.00,VWS V14.00,2013-01-28 06:14:00,
2013-01-28 01:19:00,0.1,-4.6,30.47,West,265,0.0,0.0,80,0.00,,---,0.00,0.00,VWS V14.00,2013-01-28 06:19:00,
2013-01-28 01:24:00,0.1,-4.6,30.47,West,265,0.0,0.0,80,0.00,,---,0.00,0.00,VWS V14.00,2013-01-28 06:24:00,
2013-01-28 01:29:00,0.2,-4.5,30.47,West,265,0.0,0.0,80,0.00,,---,0.00,0.00,VWS V14.00,2013-01-28 06:29:00,
2013-01-28 01:30:00,7.0,1.9,30.36,NW,313,4.0,11.0,79,0.00,,---,0.00,0.00,VWS V14.00,2013-01-28 06:30:00,
2013-01-28 01:34:00,0.5,-3.9,30.48,West,265,0.0,0.0,81,0.00,,---,0.00,0.00,VWS V14.00,2013-01-28 06:34:00,
2013-01-28 01:39:00,0.8,-3.7,30.48,West,265,0.0,0.0,81,0.00,,---,0.00,0.00,VWS V14.00,2013-01-28 06:39:00,
2013-01-28 01:44:00,1.5,-2.7,30.47,West,265,0.0,0.0,82,0.00,,---,0.00,0.00,VWS V14.00,2013-01-28 06:44:00,
2013-01-28 01:49:00,2.0,-2.2,30.47,West,265,0.0,1.0,82,0.00,,---,0.00,0.00,VWS V14.00,2013-01-28 06:49:00,
2013-01-28 01:54:00,2.3,-1.9,30.47,West,265,0.0,1.0,82,0.00,,---,0.00,0.00,VWS V14.00,2013-01-28 06:54:00,
2013-01-28 01:59:00,2.5,-2.0,30.47,West,265,0.0,1.0,81,0.00,,---,0.00,0.00,VWS V14.00,2013-01-28 06:59:00,
2013-01-28 02:00:00,6.4,1.3,30.35,NW,314,5.0,13.0,79,0.00,,---,0.00,0.00,VWS V14.00,2013-01-28 07:00:00,
2013-01-28 02:04:00,2.7,-1.5,30.47,West,265,0.0,1.0,82,0.00,,---,0.00,0.00,VWS V14.00,2013-01-28 07:04:00,
2013-01-28 02:09:00,2.9,-1.6,30.46,West,265,0.0,1.0,81,0.00,,---,0.00,0.00,VWS V14.00,2013-01-28 07:09:00,
2013-01-28 02:14:00,3.1,-1.4,30.45,West,265,0.0,1.0,81,0.00,,---,0.00,0.00,VWS V14.00,2013-01-28 07:14:00,
2013-01-28 02:19:00,3.0,-1.5,30.45,West,265,0.0,0.0,81,0.00,,---,0.00,0.00,VWS V14.00,2013-01-28 07:19:00,
2013-01-28 02:24:00,3.1,-1.4,30.45,West,265,0.0,0.0,81,0.00,,---,0.00,0.00,VWS V14.00,2013-01-28 07:24:00,
2013-01-28 02:29:00,2.9,-1.9,30.45,West,265,0.0,0.0,80,0.00,,---,0.00,0.00,VWS V14.00,2013-01-28 07:29:00,
2013-01-28 02:30:00,6.5,0.6,30.36,WSW,254,2.0,16.0,76,0.00,,---,0.00,0.00,VWS V14.00,2013-01-28 07:30:00,
2013-01-28 02:34:00,2.8,-2.0,30.44,West,265,0.0,0.0,80,0.00,,---,0.00,0.00,VWS V14.00,2013-01-28 07:34:00,
2013-01-28 02:39:00,2.7,-2.0,30.44,West,265,0.0,0.0,80,0.00,,---,0.00,0.00,VWS V14.00,2013-01-28 07:39:00,
2013-01-28 02:44:00,2.7,-2.0,30.44,West,265,0.0,0.0,80,0.00,,---,0.00,0.00,VWS V14.00,2013-01-28 07:44:00,
2013-01-28 02:49:00,2.6,-2.2,30.44,West,265,0.0,0.0,80,0.00,,---,0.00,0.00,VWS V14.00,2013-01-28 07:49:00,
2013-01-28 02:54:00,2.7,-2.0,30.44,West,265,0.0,0.0,80,0.00,,---,0.00,0.00,VWS V14.00,2013-01-28 07:54:00,
2013-01-28 02:59:00,2.8,-1.7,30.44,West,265,0.0,0.0,81,0.00,,---,0.00,0.00,VWS V14.00,2013-01-28 07:59:00,
2013-01-28 03:00:00,6.1,0.2,30.37,West,281,6.0,13.0,76,0.00,,---,0.00,0.00,VWS V14.00,2013-01-28 08:00:00,
2013-01-28 03:04:00,2.9,-1.6,30.44,West,265,0.0,0.0,81,0.00,,---,0.00,0.00,VWS V14.00,2013-01-28 08:04:00,
2013-01-28 03:09:00,3.0,-1.5,30.44,West,265,0.0,0.0,81,0.00,,---,0.00,0.00,VWS V14.00,2013-01-28 08:09:00,
2013-01-28 03:14:00,2.9,-1.6,30.43,West,265,0.0,0.0,81,0.00,,---,0.00,0.00,VWS V14.00,2013-01-28 08:14:00,
2013-01-28 03:19:00,3.1,-1.4,30.44,West,265,0.0,0.0,81,0.00,,---,0.00,0.00,VWS V14.00,2013-01-28 08:19:00,
2013-01-28 03:24:00,3.1,-1.4,30.44,West,265,0.0,0.0,81,0.00,,---,0.00,0.00,VWS V14.00,2013-01-28 08:24:00,
2013-01-28 03:29:00,3.2,-1.3,30.44,West,265,1.0,2.0,81,0.00,,---,0.00,0.00,VWS V14.00,2013-01-28 08:29:00,
2013-01-28 03:30:00,5.9,-0.3,30.38,NW,309,0.0,7.0,75,0.00,,---,0.00,0.00,VWS V14.00,2013-01-28 08:30:00,
2013-01-28 03:34:00,3.3,-1.2,30.44,West,265,0.0,2.0,81,0.00,,---,0.00,0.00,VWS V14.00,2013-01-28 08:34:00,
2013-01-28 03:39:00,3.3,-1.2,30.44,West,265,0.0,2.0,81,0.00,,---,0.00,0.00,VWS V14.00,2013-01-28 08:39:00,
2013-01-28 03:44:00,3.2,-1.3,30.44,West,265,0.0,2.0,81,0.00,,---,0.00,0.00,VWS V14.00,2013-01-28 08:44:00,
2013-01-28 03:49:00,3.1,-1.4,30.43,West,265,0.0,0.0,81,0.00,,---,0.00,0.00,VWS V14.00,2013-01-28 08:49:00,
2013-01-28 03:54:00,3.2,-1.3,30.43,West,265,0.0,0.0,81,0.00,,---,0.00,0.00,VWS V14.00,2013-01-28 08:54:00,
2013-01-28 03:59:00,3.2,-1.3,30.43,West,265,0.0,0.0,81,0.00,,---,0.00,0.00,VWS V14.00,2013-01-28 08:59:00,
2013-01-28 04:00:00,5.4,-0.8,30.39,WNW,290,4.0,7.0,75,0.00,,---,0.00,0.00,VWS V14.00,2013-01-28 09:00:00,
2013-01-28 04:04:00,3.2,-1.3,30.43,West,265,0.0,0.0,81,0.00,,---,0.00,0.00,VWS V14.00,2013-01-28 09:04:00,
2013-01-28 04:10:00,3.0,-1.5,30.42,West,265,0.0,0.0,81,0.00,,---,0.00,0.00,VWS V14.00,2013-01-28 09:10:00,
2013-01-28 04:15:00,3.2,-1.3,30.42,West,265,0.0,0.0,81,0.00,,---,0.00,0.00,VWS V14.00,2013-01-28 09:15:00,
2013-01-28 04:20:00,3.3,-1.2,30.42,West,265,0.0,0.0,81,0.00,,---,0.00,0.00,VWS V14.00,2013-01-28 09:20:00,
2013-01-28 04:25:00,3.4,-1.1,30.42,West,265,0.0,1.0,81,0.00,,---,0.00,0.00,VWS V14.00,2013-01-28 09:25:00,
2013-01-28 04:30:00,3.4,-1.1,30.42,West,265,0.0,1.0,81,0.00,,---,0.00,0.00,VWS V14.00,2013-01-28 09:30:00,
2013-01-28 04:35:00,3.3,-1.2,30.42,West,265,0.0,1.0,81,0.00,,---,0.00,0.00,VWS V14.00,2013-01-28 09:35:00,
2013-01-28 04:40:00,3.3,-1.2,30.42,West,265,0.0,1.0,81,0.00,,---,0.00,0.00,VWS V14.00,2013-01-28 09:40:00,
2013-01-28 04:45:00,3.3,-1.2,30.41,West,265,0.0,1.0,81,0.00,,---,0.00,0.00,VWS V14.00,2013-01-28 09:45:00,
2013-01-28 04:50:00,3.5,-1.0,30.41,West,265,0.0,0.0,81,0.00,,---,0.00,0.00,VWS V14.00,2013-01-28 09:50:00,
2013-01-28 04:55:00,3.7,-0.8,30.41,West,265,0.0,0.0,81,0.00,,---,0.00,0.00,VWS V14.00,2013-01-28 09:55:00,
2013-01-28 05:00:00,3.8,-0.7,30.41,West,265,0.0,0.0,81,0.00,,---,0.00,0.00,VWS V14.00,2013-01-28 10:00:00,
2013-01-28 05:05:00,4.0,-0.5,30.41,West,265,0.0,0.0,81,0.00,,---,0.00,0.00,VWS V14.00,2013-01-28 10:05:00,
2013-01-28 05:10:00,4.0,-0.5,30.41,West,265,0.0,0.0,81,0.00,,---,0.00,0.00,VWS V14.00,2013-01-28 10:10:00,
2013-01-28 05:15:00,4.3,-0.2,30.41,West,265,0.0,0.0,81,0.00,,---,0.00,0.00,VWS V14.00,2013-01-28 10:15:00,
2013-01-28 05:20:00,4.6,0.3,30.40,West,265,0.0,0.0,82,0.00,,---,0.00,0.00,VWS V14.00,2013-01-28 10:20:00,
2013-01-28 05:25:00,4.8,0.5,30.40,West,265,0.0,0.0,82,0.00,,---,0.00,0.00,VWS V14.00,2013-01-28 10:25:00,
2013-01-28 05:30:00,4.9,0.6,30.40,West,265,0.0,0.0,82,0.00,,---,0.00,0.00,VWS V14.00,2013-01-28 10:30:00,
2013-01-28 05:35:00,5.0,3.2,30.41,West,265,0.0,0.0,92,0.00,,---,0.00,0.00,VWS V14.00,2013-01-28 10:35:00,
2013-01-28 05:40:00,5.3,1.0,30.41,West,265,0.0,0.0,82,0.00,,---,0.00,0.00,VWS V14.00,2013-01-28 10:40:00,
2013-01-28 05:45:00,5.5,1.2,30.41,West,265,0.0,0.0,82,0.00,,---,0.00,0.00,VWS V14.00,2013-01-28 10:45:00,
2013-01-28 05:50:00,5.9,1.6,30.40,West,265,0.0,0.0,82,0.00,,---,0.00,0.00,VWS V14.00,2013-01-28 10:50:00,
2013-01-28 05:55:00,6.2,1.9,30.40,West,265,0.0,0.0,82,0.00,,---,0.00,0.00,VWS V14.00,2013-01-28 10:55:00,
2013-01-28 06:00:00,6.6,2.3,30.40,West,265,0.0,0.0,82,0.00,,---,0.00,0.00,VWS V14.00,2013-01-28 11:00:00,
2013-01-28 06:05:00,6.9,2.6,30.40,West,265,0.0,0.0,82,0.00,,---,0.00,0.00,VWS V14.00,2013-01-28 11:05:00,
2013-01-28 06:10:00,7.2,2.9,30.39,West,265,0.0,0.0,82,0.00,,---,0.00,0.00,VWS V14.00,2013-01-28 11:10:00,
2013-01-28 06:16:00,7.8,3.5,30.40,West,265,0.0,0.0,82,0.00,,---,0.00,0.00,VWS V14.00,2013-01-28 11:16:00,
2013-01-28 06:21:00,8.0,3.4,30.39,West,265,0.0,0.0,81,0.00,,---,0.00,0.00,VWS V14.00,2013-01-28 11:21:00,
2013-01-28 06:26:00,8.2,3.6,30.39,West,265,0.0,1.0,81,0.00,,---,0.00,0.00,VWS V14.00,2013-01-28 11:26:00,
2013-01-28 06:30:00,8.7,4.1,30.39,West,265,0.0,1.0,81,0.00,,---,0.00,0.00,VWS V14.00,2013-01-28 11:30:00,
2013-01-28 06:36:00,9.0,4.4,30.39,West,265,0.0,1.0,81,0.00,,---,0.00,0.00,VWS V14.00,2013-01-28 11:36:00,
2013-01-28 06:40:00,9.2,4.6,30.39,West,265,0.0,1.0,81,0.00,,---,0.00,0.00,VWS V14.00,2013-01-28 11:40:00,
2013-01-28 06:45:00,9.3,4.4,30.39,West,265,0.0,0.0,80,0.00,,---,0.00,0.00,VWS V14.00,2013-01-28 11:45:00,
2013-01-28 06:51:00,9.6,4.7,30.39,West,265,0.0,0.0,80,0.00,,---,0.00,0.00,VWS V14.00,2013-01-28 11:51:00,
2013-01-28 06:55:00,9.8,4.9,30.39,West,265,0.0,0.0,80,0.00,,---,0.00,0.00,VWS V14.00,2013-01-28 11:55:00,
2013-01-28 07:00:00,9.9,5.0,30.40,West,265,0.0,0.0,80,0.00,,---,0.00,0.00,VWS V14.00,2013-01-28 12:00:00,
2013-01-28 07:05:00,10.2,5.3,30.39,West,265,0.0,0.0,80,0.00,,---,0.00,0.00,VWS V14.00,2013-01-28 12:05:00,
2013-01-28 07:10:00,10.3,5.1,30.39,West,265,0.0,0.0,79,0.00,,---,0.00,0.00,VWS V14.00,2013-01-28 12:10:00,
2013-01-28 07:15:00,10.4,5.2,30.39,West,265,0.0,0.0,79,0.00,,---,0.00,0.00,VWS V14.00,2013-01-28 12:15:00,
2013-01-28 07:20:00,10.7,5.5,30.38,West,265,0.0,0.0,79,0.00,,---,0.00,0.00,VWS V14.00,2013-01-28 12:20:00,
2013-01-28 07:26:00,11.0,5.5,30.38,West,265,0.0,0.0,78,0.00,,---,0.00,5.00,VWS V14.00,2013-01-28 12:26:00,
2013-01-28 07:30:00,11.3,5.8,30.38,West,265,0.0,0.0,78,0.00,,---,0.00,7.00,VWS V14.00,2013-01-28 12:30:00,
2013-01-28 07:36:00,11.4,5.3,30.38,West,265,0.0,0.0,76,0.00,,---,0.00,9.00,VWS V14.00,2013-01-28 12:36:00,
2013-01-28 07:41:00,11.8,5.7,30.38,West,265,0.0,0.0,76,0.00,,---,0.00,11.00,VWS V14.00,2013-01-28 12:41:00,
2013-01-28 07:46:00,12.0,5.9,30.38,West,265,0.0,0.0,76,0.00,,---,0.00,12.00,VWS V14.00,2013-01-28 12:46:00,
2013-01-28 07:51:00,12.2,8.3,30.38,West,265,0.0,0.0,84,0.00,,---,0.00,14.00,VWS V14.00,2013-01-28 12:51:00,
2013-01-28 07:56:00,12.3,6.2,30.38,West,265,0.0,0.0,76,0.00,,---,0.00,25.00,VWS V14.00,2013-01-28 12:56:00,
2013-01-28 08:00:00,10.6,-1.6,30.47,WNW,300,1.0,11.0,57,0.00,,---,0.00,40.00,VWS V14.00,2013-01-28 13:00:00,
2013-01-28 08:01:00,12.5,6.4,30.38,West,265,0.0,0.0,76,0.00,,---,0.00,32.00,VWS V14.00,2013-01-28 13:01:00,
2013-01-28 08:06:00,12.8,6.7,30.38,West,265,0.0,0.0,76,0.00,,---,0.00,40.00,VWS V14.00,2013-01-28 13:06:00,
2013-01-28 08:11:00,13.1,7.0,30.38,West,265,0.0,0.0,76,0.00,,---,0.00,51.00,VWS V14.00,2013-01-28 13:11:00,
2013-01-28 08:16:00,13.4,7.0,30.37,West,265,0.0,0.0,75,0.00,,---,0.00,56.00,VWS V14.00,2013-01-28 13:16:00,
2013-01-28 08:21:00,13.8,7.4,30.38,West,265,0.0,0.0,75,0.00,,---,0.00,53.00,VWS V14.00,2013-01-28 13:21:00,
2013-01-28 08:26:00,14.1,7.3,30.38,West,265,0.0,0.0,74,0.00,,---,0.00,72.00,VWS V14.00,2013-01-28 13:26:00,
2013-01-28 08:30:00,12.1,-6.1,30.47,WNW,294,6.0,16.0,43,0.00,,---,0.00,76.00,VWS V14.00,2013-01-28 13:30:00,
2013-01-28 08:31:00,14.6,7.5,30.37,West,265,0.0,0.0,73,0.00,,---,0.00,65.00,VWS V14.00,2013-01-28 13:31:00,
2013-01-28 08:36:00,14.8,7.4,30.36,West,265,0.0,0.0,72,0.00,,---,0.00,69.00,VWS V14.00,2013-01-28 13:36:00,
2013-01-28 08:41:00,15.3,7.6,30.36,West,265,0.0,2.0,71,0.00,,---,0.00,69.00,VWS V14.00,2013-01-28 13:41:00,
2013-01-28 08:46:00,15.7,8.3,30.36,West,265,0.0,0.0,72,0.00,,---,0.00,65.00,VWS V14.00,2013-01-28 13:46:00,
2013-01-28 08:51:00,15.9,8.2,30.35,West,265,0.0,0.0,71,0.00,,---,0.00,62.00,VWS V14.00,2013-01-28 13:51:00,
2013-01-28 08:56:00,16.3,7.9,30.35,West,265,0.0,0.0,69,0.00,,---,0.00,65.00,VWS V14.00,2013-01-28 13:56:00,
2013-01-28 09:00:00,13.2,-5.6,30.48,NW,313,6.0,18.0,42,0.00,,---,0.00,237.00,VWS V14.00,2013-01-28 14:00:00,
2013-01-28 09:01:00,16.6,8.2,30.36,West,265,0.0,0.0,69,0.00,,---,0.00,77.00,VWS V14.00,2013-01-28 14:01:00,
2013-01-28 09:30:00,13.6,-7.3,30.47,WNW,298,18.0,18.0,38,0.00,,---,0.00,473.00,VWS V14.00,2013-01-28 14:30:00,
2013-01-28 10:00:00,14.6,-5.8,30.48,WNW,286,9.0,18.0,39,0.00,,---,0.00,478.00,VWS V14.00,2013-01-28 15:00:00,
2013-01-28 10:30:00,15.4,-5.7,30.46,NW,311,4.0,14.0,38,0.00,,---,0.00,473.00,VWS V14.00,2013-01-28 15:30:00,
2013-01-28 11:00:00,16.0,-6.2,30.46,WNW,297,5.0,16.0,36,0.00,,---,0.00,455.00,VWS V14.00,2013-01-28 16:00:00,
2013-01-28 11:30:00,16.7,-5.6,30.45,NNW,341,3.0,15.0,36,0.00,,---,0.00,424.00,VWS V14.00,2013-01-28 16:30:00,
2013-01-28 12:00:00,16.8,-4.9,30.46,WNW,298,3.0,11.0,37,0.00,,---,0.00,339.00,VWS V14.00,2013-01-28 17:00:00,
2013-01-28 12:30:00,17.2,-2.4,30.46,WSW,239,2.0,12.0,41,0.00,,---,0.00,316.00,VWS V14.00,2013-01-28 17:30:00,
2013-01-28 13:00:00,16.4,-1.7,30.46,SW,219,0.0,6.0,44,0.00,,---,0.00,243.00,VWS V14.00,2013-01-28 18:00:00,
2013-01-28 13:30:00,16.3,-1.8,30.47,WSW,240,0.0,5.0,44,0.00,,---,0.00,26.00,VWS V14.00,2013-01-28 18:30:00,
2013-01-28 14:00:00,15.8,-1.3,30.48,West,271,0.0,6.0,46,0.00,,---,0.00,30.00,VWS V14.00,2013-01-28 19:00:00,
2013-01-28 14:30:00,15.0,-1.6,30.48,West,265,0.0,2.0,47,0.00,,---,0.00,9.00,VWS V14.00,2013-01-28 19:30:00,
2013-01-28 15:00:00,12.0,-2.2,30.48,West,265,0.0,1.0,52,0.00,,---,0.00,0.00,VWS V14.00,2013-01-28 20:00:00,
2013-01-28 15:05:00,16.8,8.4,30.36,West,265,0.0,0.0,69,0.00,,---,0.00,77.00,VWS V14.00,2013-01-28 20:05:00,
2013-01-28 15:10:00,19.9,15.9,30.10,SE,127,3.0,4.0,84,0.01,,---,0.01,47.00,VWS V14.00,2013-01-28 20:10:00,
2013-01-28 15:15:00,20.0,15.7,30.09,ESE,120,0.0,12.0,83,0.01,,---,0.01,67.00,VWS V14.00,2013-01-28 20:15:00,
2013-01-28 15:20:00,20.3,16.0,30.10,SE,129,1.0,6.0,83,0.00,,---,0.01,37.00,VWS V14.00,2013-01-28 20:20:00,
2013-01-28 15:25:00,20.3,16.0,30.09,East,84,6.0,7.0,83,0.00,,---,0.01,25.00,VWS V14.00,2013-01-28 20:25:00,
2013-01-28 15:30:00,19.9,15.6,30.09,ESE,109,3.0,7.0,83,0.00,,---,0.01,23.00,VWS V14.00,2013-01-28 20:30:00,
2013-01-28 15:35:00,19.6,15.6,30.09,ESE,116,2.0,8.0,84,0.00,,---,0.01,26.00,VWS V14.00,2013-01-28 20:35:00,
2013-01-28 15:40:00,19.3,15.3,30.08,ESE,119,9.0,10.0,84,0.00,,---,0.01,23.00,VWS V14.00,2013-01-28 20:40:00,
2013-01-28 15:45:00,19.1,15.3,30.07,SE,131,2.0,10.0,85,0.00,,---,0.01,26.00,VWS V14.00,2013-01-28 20:45:00,
2013-01-28 15:50:00,19.2,15.4,30.07,ESE,114,5.0,11.0,85,0.00,,---,0.01,26.00,VWS V14.00,2013-01-28 20:50:00,
2013-01-28 15:55:00,19.4,15.6,30.07,ESE,102,5.0,11.0,85,0.00,,---,0.01,25.00,VWS V14.00,2013-01-28 20:55:00,
2013-01-28 16:00:00,19.3,15.5,30.07,SSE,162,1.0,11.0,85,0.00,,---,0.01,28.00,VWS V14.00,2013-01-28 21:00:00,
2013-01-28 16:05:00,19.2,15.4,30.07,ESE,120,2.0,11.0,85,0.00,,---,0.01,32.00,VWS V14.00,2013-01-28 21:05:00,
2013-01-28 16:10:00,19.1,15.3,30.07,ESE,117,1.0,11.0,85,0.01,,---,0.02,26.00,VWS V14.00,2013-01-28 21:10:00,
2013-01-28 16:15:00,19.1,15.3,30.07,SE,135,1.0,11.0,85,0.01,,---,0.02,30.00,VWS V14.00,2013-01-28 21:15:00,
2013-01-28 16:20:00,19.2,15.2,30.08,SSE,157,1.0,10.0,84,0.01,,---,0.02,25.00,VWS V14.00,2013-01-28 21:20:00,
2013-01-28 16:25:00,19.1,15.1,30.08,ESE,113,8.0,10.0,84,0.01,,---,0.02,5.00,VWS V14.00,2013-01-28 21:25:00,
2013-01-28 16:30:00,19.1,15.1,30.08,ESE,114,7.0,11.0,84,0.01,,---,0.02,5.00,VWS V14.00,2013-01-28 21:30:00,
2013-01-28 16:35:00,19.0,15.0,30.07,East,96,11.0,15.0,84,0.01,,---,0.02,5.00,VWS V14.00,2013-01-28 21:35:00,
2013-01-28 16:40:00,18.8,15.1,30.06,East,100,15.0,15.0,85,0.01,,---,0.02,5.00,VWS V14.00,2013-01-28 21:40:00,
2013-01-28 16:45:00,18.6,14.9,30.06,SE,126,8.0,10.0,85,0.01,,---,0.02,0.00,VWS V14.00,2013-01-28 21:45:00,
2013-01-28 16:51:00,18.6,15.1,30.05,SSE,155,2.0,14.0,86,0.01,,---,0.02,0.00,VWS V14.00,2013-01-28 21:51:00,
2013-01-28 16:56:00,18.7,15.2,30.06,South,169,4.0,14.0,86,0.01,,---,0.02,0.00,VWS V14.00,2013-01-28 21:56:00,
2013-01-28 17:00:00,3.2,-4.7,30.49,West,265,0.0,0.0,69,0.00,,---,0.00,0.00,VWS V14.00,2013-01-28 22:00:00,
2013-01-28 17:01:00,18.8,15.3,30.05,East,101,10.0,15.0,86,0.01,,---,0.02,0.00,VWS V14.00,2013-01-28 22:01:00,
2013-01-28 17:06:00,18.9,15.4,30.05,SE,138,2.0,15.0,86,0.01,,---,0.02,0.00,VWS V14.00,2013-01-28 22:06:00,
2013-01-28 17:11:00,18.8,15.3,30.06,ESE,117,4.0,15.0,86,0.01,,---,0.02,0.00,VWS V14.00,2013-01-28 22:11:00,
2013-01-28 17:16:00,18.9,15.1,30.06,ESE,102,2.0,3.0,85,0.00,,---,0.02,0.00,VWS V14.00,2013-01-28 22:16:00,
2013-01-28 17:21:00,18.7,14.9,30.06,South,172,3.0,12.0,85,0.00,,---,0.02,0.00,VWS V14.00,2013-01-28 22:21:00,
2013-01-28 17:26:00,18.6,15.1,30.06,East,86,7.0,15.0,86,0.00,,---,0.02,0.00,VWS V14.00,2013-01-28 22:26:00,
2013-01-28 17:30:00,2.8,-4.4,30.49,West,265,0.0,0.0,71,0.00,,---,0.00,0.00,VWS V14.00,2013-01-28 22:30:00,
2013-01-28 17:31:00,18.5,15.0,30.05,East,79,8.0,15.0,86,0.00,,---,0.02,0.00,VWS V14.00,2013-01-28 22:31:00,
2013-01-28 17:36:00,18.4,14.9,30.06,ESE,113,5.0,15.0,86,0.00,,---,0.02,0.00,VWS V14.00,2013-01-28 22:36:00,
2013-01-28 17:41:00,18.3,14.8,30.06,East,101,8.0,15.0,86,0.00,,---,0.02,0.00,VWS V14.00,2013-01-28 22:41:00,
2013-01-28 17:46:00,18.2,14.7,30.06,East,93,9.0,9.0,86,0.00,,---,0.02,0.00,VWS V14.00,2013-01-28 22:46:00,
2013-01-28 17:51:00,18.2,14.7,30.06,East,94,6.0,11.0,86,0.00,,---,0.02,0.00,VWS V14.00,2013-01-28 22:51:00,
2013-01-28 17:57:00,18.2,15.0,30.06,East,86,6.0,11.0,87,0.00,,---,0.02,0.00,VWS V14.00,2013-01-28 22:57:00,
2013-01-28 18:00:00,1.5,-5.4,30.48,West,265,0.0,1.0,72,0.00,,---,0.00,0.00,VWS V14.00,2013-01-28 23:00:00,
2013-01-28 18:02:00,18.1,14.9,30.05,ESE,107,2.0,11.0,87,0.00,,---,0.02,0.00,VWS V14.00,2013-01-28 23:02:00,
2013-01-28 18:07:00,18.1,14.9,30.05,ENE,74,7.0,11.0,87,0.00,,---,0.02,0.00,VWS V14.00,2013-01-28 23:07:00,
2013-01-28 18:12:00,18.0,14.8,30.05,East,101,7.0,15.0,87,0.01,,---,0.03,0.00,VWS V14.00,2013-01-28 23:12:00,
2013-01-28 18:17:00,18.1,14.9,30.05,SE,138,3.0,15.0,87,0.01,,---,0.03,0.00,VWS V14.00,2013-01-28 23:17:00,
2013-01-28 18:22:00,18.2,14.7,30.05,East,93,9.0,15.0,86,0.01,,---,0.03,0.00,VWS V14.00,2013-01-28 23:22:00,
2013-01-28 18:27:00,18.3,14.8,30.05,ESE,113,8.0,15.0,86,0.01,,---,0.03,0.00,VWS V14.00,2013-01-28 23:27:00,
2013-01-28 18:30:00,1.2,-5.1,30.47,West,265,0.0,0.0,74,0.00,,---,0.00,0.00,VWS V14.00,2013-01-28 23:30:00,
2013-01-28 18:32:00,18.3,14.8,30.05,East,96,8.0,15.0,86,0.01,,---,0.03,0.00,VWS V14.00,2013-01-28 23:32:00,
2013-01-28 18:37:00,18.2,14.7,30.04,ESE,102,4.0,15.0,86,0.01,,---,0.03,0.00,VWS V14.00,2013-01-28 23:37:00,
2013-01-28 18:42:00,18.2,14.7,30.04,East,80,3.0,15.0,86,0.01,,---,0.03,0.00,VWS V14.00,2013-01-28 23:42:00,
2013-01-28 18:47:00,18.1,14.6,30.04,East,88,11.0,12.0,86,0.01,,---,0.03,0.00,VWS V14.00,2013-01-28 23:47:00,
2013-01-28 18:52:00,18.1,14.6,30.04,SE,129,6.0,14.0,86,0.01,,---,0.03,0.00,VWS V14.00,2013-01-28 23:52:00,
2013-01-28 18:57:00,18.1,14.9,30.04,ESE,110,3.0,14.0,87,0.01,,---,0.03,0.00,VWS V14.00,2013-01-28 23:57:00,
2013-01-28 19:00:00,0.7,-5.3,30.48,West,265,0.0,0.0,75,0.00,,---,0.00,0.00,VWS V14.00,2013-01-29 00:00:00,
2013-01-28 19:02:00,18.1,14.9,30.04,ESE,121,13.0,15.0,87,0.01,,---,0.03,0.00,VWS V14.00,2013-01-29 00:02:00,
2013-01-28 19:07:00,18.1,14.9,30.04,ESE,103,7.0,17.0,87,0.02,,---,0.04,0.00,VWS V14.00,2013-01-29 00:07:00,
2013-01-28 19:12:00,18.3,15.1,30.04,ESE,113,4.0,17.0,87,0.02,,---,0.04,0.00,VWS V14.00,2013-01-29 00:12:00,
2013-01-28 19:17:00,18.4,15.2,30.04,East,96,8.0,13.0,87,0.01,,---,0.04,0.00,VWS V14.00,2013-01-29 00:17:00,
2013-01-28 19:22:00,18.5,15.3,30.04,ESE,112,8.0,14.0,87,0.01,,---,0.04,0.00,VWS V14.00,2013-01-29 00:22:00,
2013-01-28 19:27:00,18.6,15.4,30.04,ESE,105,8.0,15.0,87,0.01,,---,0.04,0.00,VWS V14.00,2013-01-29 00:27:00,
2013-01-28 19:30:00,0.7,-4.8,30.48,West,265,0.0,0.0,77,0.00,,---,0.00,0.00,VWS V14.00,2013-01-29 00:30:00,
2013-01-28 19:32:00,18.6,15.1,30.04,ESE,107,9.0,15.0,86,0.01,,---,0.04,0.00,VWS V14.00,2013-01-29 00:32:00,
2013-01-28 19:37:00,18.5,15.3,30.03,East,90,3.0,15.0,87,0.01,,---,0.04,0.00,VWS V14.00,2013-01-29 00:37:00,
2013-01-28 19:42:00,18.4,15.2,30.03,ESE,109,9.0,15.0,87,0.01,,---,0.04,0.00,VWS V14.00,2013-01-29 00:42:00,
2013-01-28 19:47:00,18.4,15.2,30.03,East,100,8.0,16.0,87,0.01,,---,0.04,0.00,VWS V14.00,2013-01-29 00:47:00,
2013-01-28 19:52:00,18.5,15.3,30.03,ESE,117,5.0,16.0,87,0.01,,---,0.04,0.00,VWS V14.00,2013-01-29 00:52:00,
2013-01-28 19:57:00,18.5,15.3,30.02,SE,125,7.0,16.0,87,0.01,,---,0.04,0.00,VWS V14.00,2013-01-29 00:57:00,
2013-01-28 20:00:00,0.1,-5.5,30.48,West,265,1.0,2.0,77,0.00,,---,0.00,0.00,VWS V14.00,2013-01-29 01:00:00,
2013-01-28 20:02:00,18.5,15.3,30.02,East,81,5.0,16.0,87,0.01,,---,0.04,0.00,VWS V14.00,2013-01-29 01:02:00,
2013-01-28 20:07:00,18.6,15.4,30.02,ESE,102,7.0,19.0,87,0.01,,---,0.04,0.00,VWS V14.00,2013-01-29 01:07:00,
2013-01-28 20:12:00,18.7,15.5,30.02,ESE,102,8.0,19.0,87,0.01,,---,0.04,0.00,VWS V14.00,2013-01-29 01:12:00,
2013-01-28 20:17:00,18.5,15.3,30.02,East,97,2.0,10.0,87,0.00,,---,0.04,0.00,VWS V14.00,2013-01-29 01:17:00,
2013-01-28 20:22:00,18.4,15.2,30.02,ESE,107,8.0,13.0,87,0.00,,---,0.04,0.00,VWS V14.00,2013-01-29 01:22:00,
2013-01-28 20:27:00,18.4,15.2,30.02,NE,54,6.0,13.0,87,0.00,,---,0.04,0.00,VWS V14.00,2013-01-29 01:27:00,
2013-01-28 20:30:00,0.6,-4.4,30.49,West,265,0.0,1.0,79,0.00,,---,0.00,0.00,VWS V14.00,2013-01-29 01:30:00,
2013-01-28 20:32:00,18.5,15.3,30.01,East,92,9.0,15.0,87,0.01,,---,0.05,0.00,VWS V14.00,2013-01-29 01:32:00,
2013-01-28 20:37:00,18.5,15.3,30.01,ESE,112,7.0,15.0,87,0.01,,---,0.05,0.00,VWS V14.00,2013-01-29 01:37:00,
2013-01-28 20:42:00,18.6,15.4,30.01,SSE,150,3.0,15.0,87,0.01,,---,0.05,0.00,VWS V14.00,2013-01-29 01:42:00,
2013-01-28 20:47:00,18.7,15.5,30.01,SE,124,3.0,10.0,87,0.01,,---,0.05,0.00,VWS V14.00,2013-01-29 01:47:00,
2013-01-28 20:52:00,18.8,15.6,30.01,East,98,8.0,12.0,87,0.01,,---,0.05,0.00,VWS V14.00,2013-01-29 01:52:00,
2013-01-28 20:57:00,18.9,15.4,30.01,East,99,11.0,13.0,86,0.01,,---,0.05,0.00,VWS V14.00,2013-01-29 01:57:00,
2013-01-28 21:00:00,0.6,-4.4,30.48,West,265,0.0,2.0,79,0.00,,---,0.00,0.00,VWS V14.00,2013-01-29 02:00:00,
2013-01-28 21:02:00,19.0,15.5,30.01,ESE,106,8.0,13.0,86,0.01,,---,0.05,0.00,VWS V14.00,2013-01-29 02:02:00,
2013-01-28 21:07:00,19.1,15.6,30.00,ESE,113,8.0,13.0,86,0.01,,---,0.05,0.00,VWS V14.00,2013-01-29 02:07:00,
2013-01-28 21:12:00,19.2,15.7,30.00,SE,134,8.0,13.0,86,0.01,,---,0.05,0.00,VWS V14.00,2013-01-29 02:12:00,
2013-01-28 21:17:00,19.2,15.7,30.00,East,92,10.0,16.0,86,0.01,,---,0.05,0.00,VWS V14.00,2013-01-29 02:17:00,
2013-01-28 21:22:00,19.2,15.7,30.00,ESE,118,7.0,16.0,86,0.01,,---,0.05,0.00,VWS V14.00,2013-01-29 02:22:00,
2013-01-28 21:27:00,19.2,15.7,30.00,East,90,7.0,16.0,86,0.01,,---,0.05,0.00,VWS V14.00,2013-01-29 02:27:00,
2013-01-28 21:30:00,1.0,-3.7,30.47,West,265,0.0,1.0,80,0.00,,---,0.00,0.00,VWS V14.00,2013-01-29 02:30:00,
2013-01-28 21:32:00,19.1,15.6,30.00,ESE,118,7.0,16.0,86,0.01,,---,0.05,0.00,VWS V14.00,2013-01-29 02:32:00,
2013-01-28 21:37:00,19.1,15.6,30.00,SE,136,4.0,16.0,86,0.01,,---,0.05,0.00,VWS V14.00,2013-01-29 02:37:00,
2013-01-28 21:42:00,19.1,15.9,30.00,ESE,104,13.0,16.0,87,0.01,,---,0.05,0.00,VWS V14.00,2013-01-29 02:42:00,
2013-01-28 21:47:00,19.2,16.0,29.99,East,99,5.0,9.0,87,0.00,,---,0.05,0.00,VWS V14.00,2013-01-29 02:47:00,
2013-01-28 21:52:00,19.3,16.1,29.99,ESE,116,7.0,12.0,87,0.00,,---,0.05,0.00,VWS V14.00,2013-01-29 02:52:00,
2013-01-28 21:57:00,19.3,16.1,30.00,ESE,103,2.0,12.0,87,0.01,,---,0.06,0.00,VWS V14.00,2013-01-29 02:57:00,
2013-01-28 22:00:00,1.0,-4.0,30.46,West,265,0.0,0.0,79,0.00,,---,0.00,0.00,VWS V14.00,2013-01-29 03:00:00,
2013-01-28 22:02:00,19.3,16.1,30.00,ESE,115,7.0,12.0,87,0.01,,---,0.06,0.00,VWS V14.00,2013-01-29 03:02:00,
2013-01-28 22:07:00,19.3,16.1,30.00,ESE,118,2.0,12.0,87,0.01,,---,0.06,0.00,VWS V14.00,2013-01-29 03:07:00,
2013-01-28 22:13:00,19.3,16.1,30.00,SE,136,2.0,12.0,87,0.01,,---,0.06,0.00,VWS V14.00,2013-01-29 03:13:00,
2013-01-28 22:18:00,19.4,16.2,30.00,ESE,117,7.0,7.0,87,0.01,,---,0.06,0.00,VWS V14.00,2013-01-29 03:18:00,
2013-01-28 22:23:00,19.4,16.2,29.99,ESE,107,2.0,7.0,87,0.01,,---,0.06,0.00,VWS V14.00,2013-01-29 03:23:00,
2013-01-28 22:28:00,19.6,16.4,29.99,ESE,111,10.0,12.0,87,0.01,,---,0.06,0.00,VWS V14.00,2013-01-29 03:28:00,
2013-01-28 22:30:00,0.4,-4.6,30.46,West,265,0.0,0.0,79,0.00,,---,0.00,0.00,VWS V14.00,2013-01-29 03:30:00,
2013-01-28 22:33:00,19.7,16.5,29.99,East,87,2.0,12.0,87,0.01,,---,0.06,0.00,VWS V14.00,2013-01-29 03:33:00,
2013-01-28 22:38:00,19.9,16.7,30.00,SE,131,2.0,12.0,87,0.01,,---,0.06,0.00,VWS V14.00,2013-01-29 03:38:00,
2013-01-28 22:43:00,20.0,16.8,30.00,ESE,107,3.0,12.0,87,0.01,,---,0.06,0.00,VWS V14.00,2013-01-29 03:43:00,
2013-01-28 22:48:00,20.1,16.9,30.00,East,97,0.0,3.0,87,0.01,,---,0.06,0.00,VWS V14.00,2013-01-29 03:48:00,
2013-01-28 22:53:00,20.3,17.1,30.00,East,95,1.0,7.0,87,0.01,,---,0.06,0.00,VWS V14.00,2013-01-29 03:53:00,
2013-01-28 22:58:00,20.3,17.1,30.00,ESE,107,2.0,7.0,87,0.01,,---,0.06,0.00,VWS V14.00,2013-01-29 03:58:00,
2013-01-28 23:00:00,0.1,-4.6,30.47,West,265,0.0,0.0,80,0.00,,---,0.00,0.00,VWS V14.00,2013-01-29 04:00:00,
2013-01-28 23:03:00,20.4,17.4,30.00,ESE,113,3.0,7.0,88,0.01,,---,0.06,0.00,VWS V14.00,2013-01-29 04:03:00,
2013-01-28 23:08:00,20.4,17.2,30.00,East,80,5.0,7.0,87,0.01,,---,0.06,0.00,VWS V14.00,2013-01-29 04:08:00,
2013-01-28 23:13:00,20.4,17.2,30.00,ESE,112,0.0,7.0,87,0.01,,---,0.06,0.00,VWS V14.00,2013-01-29 04:13:00,
2013-01-28 23:18:00,20.5,17.2,30.00,ESE,105,1.0,5.0,87,0.00,,---,0.06,0.00,VWS V14.00,2013-01-29 04:18:00,
2013-01-28 23:23:00,20.6,17.4,30.01,SE,130,1.0,5.0,87,0.00,,---,0.06,0.00,VWS V14.00,2013-01-29 04:23:00,
2013-01-28 23:28:00,20.6,17.4,30.01,East,98,0.0,5.0,87,0.00,,---,0.06,0.00,VWS V14.00,2013-01-29 04:28:00,
2013-01-28 23:30:00,1.7,-2.5,30.47,West,265,0.0,0.0,82,0.00,,---,0.00,0.00,VWS V14.00,2013-01-29 04:30:00,
2013-01-28 23:33:00,20.7,17.5,30.01,ESE,117,1.0,5.0,87,0.00,,---,0.06,0.00,VWS V14.00,2013-01-29 04:33:00,
2013-01-28 23:38:00,20.7,17.5,30.01,ESE,117,1.0,5.0,87,0.01,,---,0.07,0.00,VWS V14.00,2013-01-29 04:38:00,
2013-01-28 23:43:00,20.8,17.8,30.01,ESE,117,0.0,5.0,88,0.01,,---,0.07,0.00,VWS V14.00,2013-01-29 04:43:00,
2013-01-28 23:48:00,21.0,18.0,30.01,ESE,117,1.0,3.0,88,0.01,,---,0.07,0.00,VWS V14.00,2013-01-29 04:48:00,
2013-01-28 23:53:00,21.1,17.8,30.01,ESE,117,1.0,3.0,87,0.01,,---,0.07,0.00,VWS V14.00,2013-01-29 04:53:00,
2013-01-28 23:58:00,21.1,17.8,30.01,ESE,111,2.0,3.0,87,0.01,,---,0.07,0.00,VWS V14.00,2013-01-29 04:58:00,